createdAt,value
2016-03-13T00:00:13.711Z,0
2016-03-13T00:00:55.949Z,0
2016-03-13T00:03:04.082Z,0
2016-03-13T00:04:04.132Z,0
2016-03-13T00:05:16.915Z,0
2016-03-13T00:06:04.105Z,0
2016-03-13T00:08:01.735Z,0
2016-03-13T00:08:14.376Z,0
2016-03-13T00:09:27.052Z,0
2016-03-13T00:10:20.616Z,0
2016-03-13T00:11:20.651Z,0
2016-03-13T00:12:27.060Z,0
2016-03-13T00:14:23.721Z,0
2016-03-13T00:15:17.567Z,0
2016-03-13T00:16:17.507Z,0
2016-03-13T00:17:23.823Z,0
2016-03-13T00:18:23.857Z,0
2016-03-13T00:19:18.938Z,0
2016-03-13T00:20:30.315Z,0
2016-03-13T00:21:24.193Z,0
2016-03-13T00:22:31.711Z,0
2016-03-13T00:23:19.198Z,0
2016-03-13T00:24:20.779Z,0
2016-03-13T00:25:17.641Z,0
2016-03-13T00:26:23.941Z,0
2016-03-13T00:27:30.381Z,0
2016-03-13T00:28:17.649Z,0
2016-03-13T00:29:30.417Z,0
2016-03-13T00:30:23.952Z,0
2016-03-13T00:32:27.348Z,0
2016-03-13T00:35:02.400Z,0
2016-03-13T00:35:36.871Z,0
2016-03-13T00:37:02.780Z,0
2016-03-13T00:37:36.860Z,0
2016-03-13T00:38:37.010Z,0
2016-03-13T00:39:37.512Z,0
2016-03-13T00:40:37.046Z,0
2016-03-13T00:41:49.846Z,0
2016-03-13T00:42:49.676Z,0
2016-03-13T00:44:53.182Z,0
2016-03-13T00:45:05.778Z,0
2016-03-13T00:46:05.796Z,0
2016-03-13T00:47:06.455Z,0
2016-03-13T00:48:07.224Z,0
2016-03-13T00:49:18.539Z,0
2016-03-13T00:50:05.854Z,0
2016-03-13T00:51:12.920Z,0
2016-03-13T00:52:06.469Z,0
2016-03-13T00:53:18.581Z,0
2016-03-13T00:54:05.911Z,0
2016-03-13T00:55:07.492Z,0
2016-03-13T00:56:18.667Z,0
2016-03-13T00:57:06.013Z,0
2016-03-13T00:58:25.157Z,0
2016-03-13T00:59:05.956Z,0
2016-03-13T01:00:06.022Z,0
2016-03-13T01:01:07.416Z,0
2016-03-13T01:02:06.652Z,0
2016-03-13T01:03:18.717Z,0
2016-03-13T01:04:06.032Z,0
2016-03-13T01:05:25.332Z,0
2016-03-13T01:06:06.256Z,0
2016-03-13T01:07:06.072Z,0
2016-03-13T01:08:06.965Z,0
2016-03-13T01:09:06.093Z,0
2016-03-13T01:10:25.408Z,0
2016-03-13T01:11:18.849Z,0
2016-03-13T01:12:31.866Z,0
2016-03-13T01:13:25.368Z,0
2016-03-13T01:14:37.450Z,0
2016-03-13T01:16:03.265Z,0
2016-03-13T01:16:15.876Z,0
2016-03-13T01:18:12.868Z,0
2016-03-13T01:18:25.665Z,0
2016-03-13T01:19:51.151Z,0
2016-03-13T01:20:25.560Z,0
2016-03-13T01:21:56.781Z,0
2016-03-13T01:22:25.534Z,0
2016-03-13T01:23:25.520Z,0
2016-03-13T01:24:31.852Z,0
2016-03-13T01:25:25.525Z,0
2016-03-13T01:26:38.358Z,0
2016-03-13T01:27:25.547Z,0
2016-03-13T01:28:25.519Z,0
2016-03-13T01:29:25.772Z,0
2016-03-13T01:30:25.836Z,0
2016-03-13T01:31:25.839Z,0
2016-03-13T01:32:32.170Z,0
2016-03-13T01:33:31.907Z,0
2016-03-13T01:34:25.285Z,0
2016-03-13T01:35:38.599Z,0
2016-03-13T01:36:25.696Z,0
2016-03-13T01:38:54.999Z,0
2016-03-13T01:39:29.064Z,0
2016-03-13T01:40:29.176Z,0
2016-03-13T01:41:29.694Z,0
2016-03-13T01:42:41.853Z,0
2016-03-13T01:43:41.871Z,0
2016-03-13T01:44:54.796Z,0
2016-03-13T01:45:29.159Z,0
2016-03-13T01:47:26.195Z,0
2016-03-13T01:47:39.007Z,0
2016-03-13T01:49:38.779Z,0
2016-03-13T01:50:40.218Z,0
2016-03-13T01:51:39.237Z,0
2016-03-13T01:52:38.817Z,0
2016-03-13T01:53:40.289Z,0
2016-03-13T01:54:45.089Z,0
2016-03-13T01:55:51.700Z,0
2016-03-13T01:56:51.735Z,0
2016-03-13T01:57:51.722Z,0
2016-03-13T01:58:58.178Z,0
2016-03-13T01:59:51.867Z,0
2016-03-13T02:00:38.949Z,0
2016-03-13T02:01:38.967Z,0
2016-03-13T02:02:45.266Z,0
2016-03-13T02:03:51.722Z,0
2016-03-13T02:04:39.006Z,0
2016-03-13T02:06:04.728Z,0
2016-03-13T02:06:39.683Z,0
2016-03-13T02:07:39.030Z,0
2016-03-13T02:08:39.252Z,0
2016-03-13T02:09:51.801Z,0
2016-03-13T02:10:39.179Z,0
2016-03-13T02:12:04.775Z,0
2016-03-13T02:12:39.152Z,0
2016-03-13T02:13:39.155Z,0
2016-03-13T02:14:51.923Z,0
2016-03-13T02:15:39.193Z,0
2016-03-13T02:16:39.179Z,0
2016-03-13T02:17:39.463Z,0
2016-03-13T02:18:51.951Z,0
2016-03-13T02:19:39.203Z,0
2016-03-13T02:20:42.253Z,0
2016-03-13T02:21:39.334Z,0
2016-03-13T02:22:51.992Z,0
2016-03-13T02:23:39.932Z,0
2016-03-13T02:24:39.294Z,0
2016-03-13T02:25:40.047Z,0
2016-03-13T02:26:39.331Z,0
2016-03-13T02:27:39.459Z,0
2016-03-13T02:28:52.071Z,0
2016-03-13T02:29:45.620Z,0
2016-03-13T02:31:30.125Z,0
2016-03-13T02:32:08.453Z,0
2016-03-13T02:32:42.800Z,0
2016-03-13T02:33:42.740Z,0
2016-03-13T02:34:42.744Z,0
2016-03-13T02:35:42.747Z,0
2016-03-13T02:36:42.826Z,0
2016-03-13T02:37:42.783Z,0
2016-03-13T02:38:43.005Z,0
2016-03-13T02:39:43.054Z,0
2016-03-13T02:40:42.885Z,0
2016-03-13T02:41:43.012Z,0
2016-03-13T02:42:42.858Z,0
2016-03-13T02:43:42.971Z,0
2016-03-13T02:44:42.880Z,0
2016-03-13T02:45:42.945Z,0
2016-03-13T02:46:42.932Z,0
2016-03-13T02:47:43.168Z,0
2016-03-13T02:48:55.671Z,0
2016-03-13T02:49:55.706Z,0
2016-03-13T02:51:02.176Z,0
2016-03-13T02:52:02.211Z,0
2016-03-13T02:52:42.979Z,0
2016-03-13T02:54:45.625Z,0
2016-03-13T02:54:58.422Z,0
2016-03-13T02:55:58.706Z,0
2016-03-13T02:56:58.240Z,0
2016-03-13T02:58:11.026Z,0
2016-03-13T02:58:58.933Z,0
2016-03-13T02:59:58.358Z,0
2016-03-13T03:00:58.314Z,0
2016-03-13T03:01:58.567Z,0
2016-03-13T03:02:58.319Z,0
2016-03-13T03:03:58.337Z,0
2016-03-13T03:04:58.325Z,0
2016-03-13T03:06:11.111Z,0
2016-03-13T03:06:58.970Z,0
2016-03-13T03:08:17.600Z,0
2016-03-13T03:08:58.991Z,0
2016-03-13T03:11:00.996Z,0
2016-03-13T03:11:13.561Z,0
2016-03-13T03:12:32.814Z,0
2016-03-13T03:13:14.223Z,0
2016-03-13T03:15:17.697Z,0
2016-03-13T03:15:30.322Z,0
2016-03-13T03:16:30.324Z,0
2016-03-13T03:17:31.749Z,0
2016-03-13T03:18:30.345Z,0
2016-03-13T03:19:49.536Z,0
2016-03-13T03:20:43.101Z,0
2016-03-13T03:21:30.573Z,0
2016-03-13T03:22:43.325Z,0
2016-03-13T03:23:43.250Z,0
2016-03-13T03:24:31.050Z,0
2016-03-13T03:26:40.055Z,0
2016-03-13T03:27:52.933Z,0
2016-03-13T03:28:53.075Z,0
2016-03-13T03:29:40.173Z,0
2016-03-13T03:30:41.566Z,0
2016-03-13T03:31:40.662Z,0
2016-03-13T03:32:41.587Z,0
2016-03-13T03:33:41.605Z,0
2016-03-13T03:34:40.186Z,0
2016-03-13T03:35:52.955Z,0
2016-03-13T03:36:40.644Z,0
2016-03-13T03:37:40.272Z,0
2016-03-13T03:38:40.478Z,0
2016-03-13T03:39:40.247Z,0
2016-03-13T03:40:53.077Z,0
2016-03-13T03:41:40.267Z,0
2016-03-13T03:42:40.426Z,0
2016-03-13T03:43:40.304Z,0
2016-03-13T03:44:40.557Z,0
2016-03-13T03:45:40.152Z,0
2016-03-13T03:46:53.265Z,0
2016-03-13T03:47:47.221Z,0
2016-03-13T03:49:37.351Z,0
2016-03-13T03:49:49.913Z,0
2016-03-13T03:50:50.010Z,0
2016-03-13T03:52:02.668Z,0
2016-03-13T03:52:56.203Z,0
2016-03-13T03:54:09.002Z,0
2016-03-13T03:54:50.223Z,0
2016-03-13T03:56:09.211Z,0
2016-03-13T03:56:49.995Z,0
2016-03-13T03:57:50.059Z,0
2016-03-13T03:58:50.047Z,0
2016-03-13T03:59:50.222Z,0
2016-03-13T04:00:50.067Z,0
2016-03-13T04:01:50.414Z,0
2016-03-13T04:02:50.105Z,0
2016-03-13T04:03:50.311Z,0
2016-03-13T04:04:50.126Z,0
2016-03-13T04:05:50.160Z,0
2016-03-13T04:06:56.475Z,0
2016-03-13T04:07:50.166Z,0
2016-03-13T04:08:50.168Z,0
2016-03-13T04:09:57.842Z,0
2016-03-13T04:10:50.205Z,0
2016-03-13T04:12:15.866Z,0
2016-03-13T04:12:50.241Z,0
2016-03-13T04:13:50.228Z,0
2016-03-13T04:14:50.418Z,0
2016-03-13T04:15:50.296Z,0
2016-03-13T04:17:03.283Z,0
2016-03-13T04:17:50.301Z,0
2016-03-13T04:18:50.429Z,0
2016-03-13T04:20:03.057Z,0
2016-03-13T04:20:51.043Z,0
2016-03-13T04:22:09.549Z,0
2016-03-13T04:22:50.377Z,0
2016-03-13T04:25:00.070Z,0
2016-03-13T04:25:59.885Z,0
2016-03-13T04:27:00.278Z,0
2016-03-13T04:28:00.298Z,0
2016-03-13T04:29:06.643Z,0
2016-03-13T04:30:01.568Z,0
2016-03-13T04:31:00.134Z,0
2016-03-13T04:32:00.136Z,0
2016-03-13T04:33:00.186Z,0
2016-03-13T04:34:00.189Z,0
2016-03-13T04:35:00.379Z,0
2016-03-13T04:36:00.381Z,0
2016-03-13T04:37:00.197Z,0
2016-03-13T04:38:00.309Z,0
2016-03-13T04:39:13.002Z,0
2016-03-13T04:40:06.548Z,0
2016-03-13T04:41:19.491Z,0
2016-03-13T04:42:00.553Z,0
2016-03-13T04:43:01.775Z,0
2016-03-13T04:44:01.699Z,0
2016-03-13T04:45:03.405Z,0
2016-03-13T04:46:01.752Z,0
2016-03-13T04:47:00.691Z,0
2016-03-13T04:48:00.335Z,0
2016-03-13T04:49:13.137Z,0
2016-03-13T04:50:00.403Z,0
2016-03-13T04:51:00.421Z,0
2016-03-13T04:52:00.408Z,0
2016-03-13T04:53:06.739Z,0
2016-03-13T04:54:01.242Z,0
2016-03-13T04:55:01.932Z,0
2016-03-13T04:56:00.669Z,0
2016-03-13T04:57:00.531Z,0
2016-03-13T04:58:01.112Z,0
2016-03-13T04:59:00.505Z,0
2016-03-13T05:00:01.133Z,0
2016-03-13T05:01:00.573Z,0
2016-03-13T05:02:13.454Z,0
2016-03-13T05:03:00.548Z,0
2016-03-13T05:05:10.150Z,0
2016-03-13T05:06:29.324Z,0
2016-03-13T05:07:10.358Z,0
2016-03-13T05:08:35.830Z,0
2016-03-13T05:09:10.175Z,0
2016-03-13T05:10:10.319Z,0
2016-03-13T05:11:10.244Z,0
2016-03-13T05:12:10.246Z,0
2016-03-13T05:13:10.389Z,0
2016-03-13T05:14:16.517Z,0
2016-03-13T05:15:10.238Z,0
2016-03-13T05:16:11.663Z,0
2016-03-13T05:17:10.275Z,0
2016-03-13T05:18:29.496Z,0
2016-03-13T05:19:16.812Z,0
2016-03-13T05:21:12.957Z,0
2016-03-13T05:21:44.739Z,0
2016-03-13T05:22:25.570Z,0
2016-03-13T05:23:25.760Z,0
2016-03-13T05:24:31.856Z,0
2016-03-13T05:25:38.328Z,0
2016-03-13T05:26:38.470Z,0
2016-03-13T05:27:51.536Z,0
2016-03-13T05:28:38.929Z,0
2016-03-13T05:29:56.947Z,0
2016-03-13T05:30:51.309Z,0
2016-03-13T05:32:38.456Z,0
2016-03-13T05:33:25.677Z,0
2016-03-13T05:34:25.742Z,0
2016-03-13T05:35:26.323Z,0
2016-03-13T05:36:38.467Z,0
2016-03-13T05:37:38.673Z,0
2016-03-13T05:39:22.756Z,5
2016-03-13T05:40:25.853Z,5
2016-03-13T05:40:58.259Z,5
2016-03-13T05:41:38.683Z,5
2016-03-13T05:43:04.108Z,5
2016-03-13T05:43:38.611Z,5
2016-03-13T05:44:38.472Z,5
2016-03-13T05:45:38.569Z,10
2016-03-13T05:46:39.953Z,10
2016-03-13T05:47:38.685Z,10
2016-03-13T05:48:40.696Z,10
2016-03-13T05:49:38.958Z,10
2016-03-13T05:50:39.149Z,10
2016-03-13T05:51:51.292Z,15
2016-03-13T05:52:39.810Z,15
2016-03-13T05:54:35.566Z,20
2016-03-13T05:55:13.803Z,20
2016-03-13T05:56:39.696Z,20
2016-03-13T05:56:52.368Z,20
2016-03-13T05:58:49.254Z,25
2016-03-13T05:59:14.568Z,25
2016-03-13T06:00:01.912Z,25
2016-03-13T06:01:01.977Z,25
2016-03-13T06:02:01.855Z,30
2016-03-13T06:03:14.923Z,30
2016-03-13T06:04:01.923Z,30
2016-03-13T06:05:02.785Z,30
2016-03-13T06:06:01.897Z,35
2016-03-13T06:07:14.728Z,35
2016-03-13T06:08:02.165Z,35
2016-03-13T06:09:21.484Z,35
2016-03-13T06:10:01.953Z,35
2016-03-13T06:12:11.757Z,35
2016-03-13T06:13:24.495Z,35
2016-03-13T06:14:13.231Z,35
2016-03-13T06:15:37.469Z,30
2016-03-13T06:16:11.784Z,30
2016-03-13T06:17:11.989Z,35
2016-03-13T06:18:11.898Z,35
2016-03-13T06:19:11.823Z,35
2016-03-13T06:20:11.903Z,35
2016-03-13T06:21:11.860Z,35
2016-03-13T06:22:11.955Z,35
2016-03-13T06:23:11.865Z,35
2016-03-13T06:24:24.649Z,35
2016-03-13T06:25:13.182Z,35
2016-03-13T06:26:11.966Z,35
2016-03-13T06:27:14.969Z,35
2016-03-13T06:28:12.159Z,35
2016-03-13T06:29:11.959Z,35
2016-03-13T06:30:11.977Z,35
2016-03-13T06:31:11.995Z,40
2016-03-13T06:32:12.201Z,40
2016-03-13T06:33:12.204Z,45
2016-03-13T06:34:12.019Z,45
2016-03-13T06:35:12.037Z,45
2016-03-13T06:36:18.431Z,50
2016-03-13T06:37:12.120Z,50
2016-03-13T06:38:12.108Z,50
2016-03-13T06:39:12.064Z,50
2016-03-13T06:40:12.128Z,50
2016-03-13T06:41:12.710Z,50
2016-03-13T06:42:12.150Z,45
2016-03-13T06:43:12.231Z,50
2016-03-13T06:44:12.218Z,50
2016-03-13T06:45:15.392Z,50
2016-03-13T06:46:12.192Z,50
2016-03-13T06:47:12.195Z,50
2016-03-13T06:48:12.197Z,50
2016-03-13T06:49:12.216Z,55
2016-03-13T06:50:12.405Z,55
2016-03-13T06:51:12.236Z,60
2016-03-13T06:52:12.474Z,60
2016-03-13T06:53:12.899Z,60
2016-03-13T06:54:12.526Z,60
2016-03-13T06:55:18.576Z,60
2016-03-13T06:56:12.532Z,60
2016-03-13T06:57:30.424Z,65
2016-03-13T06:58:12.412Z,65
2016-03-13T06:59:12.399Z,70
2016-03-13T07:00:12.418Z,70
2016-03-13T07:01:12.389Z,70
2016-03-13T07:02:13.876Z,75
2016-03-13T07:03:12.660Z,75
2016-03-13T07:04:12.460Z,80
2016-03-13T07:05:12.681Z,80
2016-03-13T07:06:12.512Z,85
2016-03-13T07:07:12.468Z,85
2016-03-13T07:08:12.486Z,85
2016-03-13T07:09:12.504Z,90
2016-03-13T07:10:12.491Z,95
2016-03-13T07:11:12.650Z,95
2016-03-13T07:12:12.497Z,100
2016-03-13T07:13:12.421Z,105
2016-03-13T07:14:12.548Z,110
2016-03-13T07:15:12.583Z,110
2016-03-13T07:16:12.539Z,105
2016-03-13T07:17:12.603Z,105
2016-03-13T07:18:12.638Z,110
2016-03-13T07:19:12.546Z,120
2016-03-13T07:20:25.361Z,125
2016-03-13T07:21:18.927Z,130
2016-03-13T07:23:47.916Z,135
2016-03-13T07:24:22.185Z,135
2016-03-13T07:25:22.218Z,135
2016-03-13T07:26:22.285Z,135
2016-03-13T07:27:22.240Z,135
2016-03-13T07:28:22.258Z,130
2016-03-13T07:29:22.277Z,135
2016-03-13T07:30:22.420Z,135
2016-03-13T07:31:22.298Z,135
2016-03-13T07:32:22.504Z,140
2016-03-13T07:33:22.350Z,145
2016-03-13T07:34:22.368Z,150
2016-03-13T07:35:22.324Z,155
2016-03-13T07:36:22.482Z,160
2016-03-13T07:37:22.360Z,165
2016-03-13T07:38:22.442Z,165
2016-03-13T07:39:22.428Z,170
2016-03-13T07:40:22.415Z,180
2016-03-13T07:41:28.731Z,190
2016-03-13T07:42:22.436Z,185
2016-03-13T07:43:22.423Z,185
2016-03-13T07:44:22.535Z,195
2016-03-13T07:45:22.678Z,200
2016-03-13T07:46:22.509Z,195
2016-03-13T07:47:22.746Z,200
2016-03-13T07:48:22.530Z,200
2016-03-13T07:49:22.596Z,205
2016-03-13T07:50:35.286Z,220
2016-03-13T07:51:28.852Z,220
2016-03-13T07:52:41.792Z,210
2016-03-13T07:53:35.544Z,205
2016-03-13T07:54:48.328Z,205
2016-03-13T07:55:22.706Z,205
2016-03-13T07:56:22.974Z,195
2016-03-13T07:57:22.664Z,195
2016-03-13T07:58:22.838Z,200
2016-03-13T07:59:35.451Z,210
2016-03-13T08:00:22.860Z,220
2016-03-13T08:01:41.971Z,220
2016-03-13T08:02:22.802Z,205
2016-03-13T08:03:22.774Z,200
2016-03-13T08:04:23.043Z,195
2016-03-13T08:05:24.249Z,200
2016-03-13T08:06:22.845Z,205
2016-03-13T08:07:22.816Z,200
2016-03-13T08:08:22.850Z,190
2016-03-13T08:09:22.884Z,190
2016-03-13T08:10:22.856Z,190
2016-03-13T08:11:22.858Z,185
2016-03-13T08:12:35.626Z,190
2016-03-13T08:13:22.942Z,195
2016-03-13T08:14:35.664Z,205
2016-03-13T08:15:23.072Z,215
2016-03-13T08:16:35.919Z,230
2016-03-13T08:17:22.953Z,225
2016-03-13T08:18:23.064Z,220
2016-03-13T08:19:23.005Z,230
2016-03-13T08:20:23.008Z,235
2016-03-13T08:21:35.775Z,245
2016-03-13T08:22:29.294Z,255
2016-03-13T08:23:23.077Z,260
2016-03-13T08:24:23.502Z,255
2016-03-13T08:25:23.114Z,255
2016-03-13T08:26:23.101Z,260
2016-03-13T08:27:23.105Z,255
2016-03-13T08:28:23.263Z,260
2016-03-13T08:29:22.969Z,275
2016-03-13T08:30:23.785Z,295
2016-03-13T08:31:23.209Z,305
2016-03-13T08:32:23.883Z,290
2016-03-13T08:33:23.229Z,310
2016-03-13T08:34:23.185Z,305
2016-03-13T08:35:23.203Z,295
2016-03-13T08:36:24.052Z,280
2016-03-13T08:37:23.228Z,280
2016-03-13T08:38:23.249Z,280
2016-03-13T08:39:23.237Z,275
2016-03-13T08:40:23.898Z,270
2016-03-13T08:41:23.427Z,260
2016-03-13T08:42:23.410Z,260
2016-03-13T08:43:23.391Z,260
2016-03-13T08:44:35.972Z,265
2016-03-13T08:45:23.517Z,260
2016-03-13T08:46:48.971Z,265
2016-03-13T08:47:35.894Z,265
2016-03-13T08:48:23.472Z,280
2016-03-13T08:49:42.692Z,300
2016-03-13T08:50:23.583Z,315
2016-03-13T08:52:15.414Z,315
2016-03-13T08:52:28.008Z,310
2016-03-13T08:53:28.042Z,325
2016-03-13T08:54:29.512Z,320
2016-03-13T08:55:34.374Z,325
2016-03-13T08:56:40.657Z,355
2016-03-13T08:57:47.440Z,335
2016-03-13T08:58:40.834Z,330
2016-03-13T08:59:53.602Z,320
2016-03-13T09:00:41.073Z,325
2016-03-13T09:01:59.606Z,350
2016-03-13T09:02:44.156Z,355
2016-03-13T09:03:59.456Z,365
2016-03-13T09:04:53.631Z,355
2016-03-13T09:06:28.355Z,360
2016-03-13T09:07:28.849Z,355
2016-03-13T09:08:28.273Z,330
2016-03-13T09:09:40.995Z,345
2016-03-13T09:10:41.044Z,370
2016-03-13T09:11:28.312Z,370
2016-03-13T09:12:47.643Z,365
2016-03-13T09:13:28.943Z,355
2016-03-13T09:14:54.039Z,355
2016-03-13T09:15:41.214Z,340
2016-03-13T09:16:59.701Z,335
2016-03-13T09:17:47.595Z,340
2016-03-13T09:18:28.597Z,340
2016-03-13T09:20:31.133Z,340
2016-03-13T09:20:43.805Z,340
2016-03-13T09:21:43.731Z,350
2016-03-13T09:22:43.811Z,365
2016-03-13T09:23:43.798Z,365
2016-03-13T09:24:43.816Z,375
2016-03-13T09:25:43.834Z,380
2016-03-13T09:26:50.180Z,385
2016-03-13T09:27:44.199Z,375
2016-03-13T09:28:43.764Z,355
2016-03-13T09:29:44.033Z,365
2016-03-13T09:30:43.911Z,395
2016-03-13T09:31:44.022Z,410
2016-03-13T09:32:43.978Z,420
2016-03-13T09:33:45.419Z,420
2016-03-13T09:34:43.983Z,430
2016-03-13T09:35:44.033Z,440
2016-03-13T09:36:44.068Z,435
2016-03-13T09:37:44.070Z,445
2016-03-13T09:38:44.073Z,435
2016-03-13T09:39:44.013Z,410
2016-03-13T09:40:44.235Z,405
2016-03-13T09:41:44.862Z,415
2016-03-13T09:42:44.162Z,390
2016-03-13T09:43:44.008Z,375
2016-03-13T09:44:44.151Z,330
2016-03-13T09:45:50.388Z,320
2016-03-13T09:46:44.235Z,330
2016-03-13T09:47:44.160Z,345
2016-03-13T09:48:44.787Z,355
2016-03-13T09:49:44.243Z,380
2016-03-13T09:50:44.339Z,355
2016-03-13T09:51:45.029Z,335
2016-03-13T09:52:57.000Z,350
2016-03-13T09:53:57.098Z,345
2016-03-13T09:54:44.272Z,355
2016-03-13T09:56:03.697Z,385
2016-03-13T09:56:44.340Z,380
2016-03-13T09:57:44.436Z,380
2016-03-13T09:58:45.033Z,400
2016-03-13T09:59:57.145Z,415
2016-03-13T10:00:45.913Z,415
2016-03-13T10:02:10.103Z,420
2016-03-13T10:02:44.465Z,415
2016-03-13T10:03:44.468Z,420
2016-03-13T10:04:44.486Z,430
2016-03-13T10:05:44.505Z,440
2016-03-13T10:06:44.539Z,440
2016-03-13T10:07:50.916Z,420
2016-03-13T10:08:44.732Z,405
2016-03-13T10:10:03.781Z,420
2016-03-13T10:10:44.627Z,430
2016-03-13T10:11:44.630Z,425
2016-03-13T10:12:44.711Z,425
2016-03-13T10:13:44.713Z,430
2016-03-13T10:14:44.685Z,440
2016-03-13T10:15:44.704Z,445
2016-03-13T10:16:44.721Z,460
2016-03-13T10:17:45.396Z,450
2016-03-13T10:18:57.492Z,450
2016-03-13T10:19:52.464Z,455
2016-03-13T10:21:48.250Z,440
2016-03-13T10:22:47.956Z,435
2016-03-13T10:24:00.662Z,440
2016-03-13T10:24:47.962Z,430
2016-03-13T10:26:06.996Z,440
2016-03-13T10:26:48.014Z,445
2016-03-13T10:28:08.611Z,445
2016-03-13T10:28:49.535Z,435
2016-03-13T10:29:48.069Z,430
2016-03-13T10:30:48.150Z,440
2016-03-13T10:31:53.886Z,420
2016-03-13T10:32:48.077Z,400
2016-03-13T10:33:48.221Z,400
2016-03-13T10:34:48.208Z,425
2016-03-13T10:35:50.163Z,425
2016-03-13T10:36:48.244Z,430
2016-03-13T10:37:48.465Z,460
2016-03-13T10:38:48.218Z,460
2016-03-13T10:39:48.487Z,425
2016-03-13T10:40:48.474Z,385
2016-03-13T10:41:48.633Z,400
2016-03-13T10:42:48.401Z,430
2016-03-13T10:43:49.185Z,440
2016-03-13T10:45:01.141Z,490
2016-03-13T10:45:48.409Z,515
2016-03-13T10:46:48.459Z,515
2016-03-13T10:47:48.602Z,485
2016-03-13T10:48:48.479Z,480
2016-03-13T10:49:48.420Z,440
2016-03-13T10:50:49.078Z,405
2016-03-13T10:51:49.847Z,410
2016-03-13T10:52:48.475Z,400
2016-03-13T10:54:01.384Z,390
2016-03-13T10:54:48.481Z,400
2016-03-13T10:56:01.905Z,405
2016-03-13T10:57:01.454Z,435
2016-03-13T10:58:45.945Z,465
2016-03-13T10:59:08.210Z,470
2016-03-13T10:59:58.587Z,480
2016-03-13T11:01:00.230Z,500
2016-03-13T11:02:04.999Z,460
2016-03-13T11:02:59.361Z,425
2016-03-13T11:04:05.239Z,405
2016-03-13T11:04:58.975Z,430
2016-03-13T11:06:17.963Z,490
2016-03-13T11:06:59.372Z,490
2016-03-13T11:08:55.768Z,475
2016-03-13T11:10:05.505Z,410
2016-03-13T11:10:44.101Z,400
2016-03-13T11:11:18.445Z,385
2016-03-13T11:12:49.701Z,365
2016-03-13T11:13:18.451Z,365
2016-03-13T11:14:18.171Z,370
2016-03-13T11:15:18.206Z,385
2016-03-13T11:16:18.458Z,385
2016-03-13T11:17:18.648Z,385
2016-03-13T11:18:18.448Z,380
2016-03-13T11:19:18.654Z,380
2016-03-13T11:20:19.720Z,365
2016-03-13T11:21:18.473Z,340
2016-03-13T11:22:18.428Z,295
2016-03-13T11:23:18.493Z,275
2016-03-13T11:24:18.651Z,265
2016-03-13T11:25:18.498Z,255
2016-03-13T11:26:18.407Z,260
2016-03-13T11:27:18.488Z,285
2016-03-13T11:28:18.475Z,325
2016-03-13T11:29:18.712Z,370
2016-03-13T11:30:18.792Z,405
2016-03-13T11:31:18.655Z,375
2016-03-13T11:32:18.861Z,340
2016-03-13T11:33:18.708Z,340
2016-03-13T11:34:18.945Z,325
2016-03-13T11:35:18.681Z,305
2016-03-13T11:36:19.075Z,335
2016-03-13T11:37:18.734Z,380
2016-03-13T11:38:18.987Z,415
2016-03-13T11:39:18.896Z,455
2016-03-13T11:40:18.727Z,450
2016-03-13T11:41:18.917Z,435
2016-03-13T11:42:33.047Z,415
2016-03-13T11:43:18.953Z,390
2016-03-13T11:44:44.443Z,325
2016-03-13T11:45:19.037Z,295
2016-03-13T11:46:18.774Z,285
2016-03-13T11:47:18.885Z,300
2016-03-13T11:48:19.029Z,335
2016-03-13T11:49:18.860Z,365
2016-03-13T11:50:18.893Z,360
2016-03-13T11:51:31.946Z,365
2016-03-13T11:52:18.915Z,380
2016-03-13T11:53:25.264Z,400
2016-03-13T11:54:18.967Z,405
2016-03-13T11:55:18.954Z,405
2016-03-13T11:56:19.160Z,375
2016-03-13T11:57:19.006Z,360
2016-03-13T11:58:19.368Z,355
2016-03-13T11:59:19.059Z,310
2016-03-13T12:00:19.155Z,325
2016-03-13T12:01:19.346Z,375
2016-03-13T12:02:19.146Z,425
2016-03-13T12:03:19.164Z,440
2016-03-13T12:04:19.432Z,435
2016-03-13T12:05:19.638Z,395
2016-03-13T12:06:19.625Z,335
2016-03-13T12:07:19.518Z,310
2016-03-13T12:08:19.442Z,315
2016-03-13T12:09:19.523Z,315
2016-03-13T12:10:19.213Z,305
2016-03-13T12:11:20.107Z,315
2016-03-13T12:12:19.531Z,365
2016-03-13T12:13:19.816Z,425
2016-03-13T12:14:19.819Z,420
2016-03-13T12:15:19.493Z,380
2016-03-13T12:16:19.199Z,360
2016-03-13T12:17:19.529Z,360
2016-03-13T12:18:20.047Z,335
2016-03-13T12:19:19.691Z,335
2016-03-13T12:20:19.866Z,370
2016-03-13T12:21:19.915Z,385
2016-03-13T12:22:19.777Z,390
2016-03-13T12:23:19.608Z,390
2016-03-13T12:24:19.986Z,340
2016-03-13T12:25:19.738Z,300
2016-03-13T12:26:19.788Z,285
2016-03-13T12:27:19.587Z,305
2016-03-13T12:28:20.043Z,295
2016-03-13T12:29:19.734Z,290
2016-03-13T12:30:19.595Z,265
2016-03-13T12:31:20.443Z,265
2016-03-13T12:32:19.914Z,280
2016-03-13T12:33:20.073Z,320
2016-03-13T12:34:20.185Z,345
2016-03-13T12:35:20.312Z,325
2016-03-13T12:36:19.800Z,305
2016-03-13T12:37:20.114Z,310
2016-03-13T12:38:20.351Z,305
2016-03-13T12:39:20.120Z,320
2016-03-13T12:40:19.841Z,315
2016-03-13T12:41:20.453Z,295
2016-03-13T12:42:19.816Z,280
2016-03-13T12:43:20.412Z,285
2016-03-13T12:44:19.899Z,315
2016-03-13T12:45:20.402Z,330
2016-03-13T12:46:19.905Z,340
2016-03-13T12:47:20.985Z,365
2016-03-13T12:48:19.925Z,320
2016-03-13T12:49:20.615Z,325
2016-03-13T12:50:20.650Z,335
2016-03-13T12:51:20.183Z,300
2016-03-13T12:52:20.310Z,275
2016-03-13T12:53:20.517Z,260
2016-03-13T12:54:20.441Z,255
2016-03-13T12:55:20.335Z,290
2016-03-13T12:56:20.291Z,390
2016-03-13T12:57:19.652Z,455
2016-03-13T12:58:20.343Z,435
2016-03-13T12:59:20.079Z,395
2016-03-13T13:00:20.379Z,380
2016-03-13T13:01:20.851Z,390
2016-03-13T13:02:20.276Z,360
2016-03-13T13:03:20.169Z,340
2016-03-13T13:04:20.437Z,340
2016-03-13T13:05:20.315Z,335
2016-03-13T13:06:21.755Z,325
2016-03-13T13:07:20.492Z,325
2016-03-13T13:08:20.542Z,315
2016-03-13T13:09:20.548Z,295
2016-03-13T13:10:21.191Z,310
2016-03-13T13:11:20.351Z,295
2016-03-13T13:12:20.822Z,280
2016-03-13T13:13:20.590Z,275
2016-03-13T13:14:20.140Z,290
2016-03-13T13:15:20.440Z,295
2016-03-13T13:16:20.645Z,285
2016-03-13T13:17:23.538Z,270
2016-03-13T13:18:20.603Z,260
2016-03-13T13:19:20.748Z,250
2016-03-13T13:20:20.781Z,270
2016-03-13T13:21:20.486Z,305
2016-03-13T13:22:20.598Z,300
2016-03-13T13:23:20.914Z,300
2016-03-13T13:24:20.604Z,290
2016-03-13T13:25:21.248Z,250
2016-03-13T13:26:20.656Z,235
2016-03-13T13:27:20.565Z,220
2016-03-13T18:19:24.234Z,0
2016-03-13T18:20:24.254Z,0
2016-03-13T18:21:24.725Z,0
2016-03-13T18:22:24.587Z,0
2016-03-13T18:23:37.168Z,0
2016-03-13T18:24:24.342Z,0
2016-03-13T18:25:24.375Z,0
2016-03-13T18:26:24.410Z,0
2016-03-13T18:27:24.413Z,0
2016-03-13T18:28:24.525Z,0
2016-03-13T18:29:37.075Z,0
2016-03-13T18:30:24.358Z,0
2016-03-13T18:31:24.424Z,0
2016-03-13T18:32:24.410Z,0
2016-03-13T18:33:24.460Z,0
2016-03-13T18:34:24.524Z,0
2016-03-13T18:35:24.700Z,0
2016-03-13T18:36:24.733Z,0
2016-03-13T18:37:24.690Z,0
2016-03-13T18:38:24.802Z,0
2016-03-13T18:39:24.648Z,0
2016-03-13T18:40:24.526Z,0
2016-03-13T18:41:24.560Z,0
2016-03-13T18:42:24.734Z,0
2016-03-13T18:43:24.674Z,0
2016-03-13T18:44:24.614Z,0
2016-03-13T18:45:24.696Z,0
2016-03-13T18:46:24.589Z,0
2016-03-13T18:47:37.404Z,0
2016-03-13T18:48:37.345Z,0
2016-03-13T18:49:24.972Z,0
2016-03-13T18:50:37.381Z,0
2016-03-13T18:51:24.884Z,0
2016-03-13T18:52:25.011Z,0
2016-03-13T18:53:25.217Z,0
2016-03-13T18:54:24.736Z,0
2016-03-13T18:55:24.769Z,0
2016-03-13T18:56:24.850Z,0
2016-03-13T18:57:24.775Z,0
2016-03-13T18:58:25.402Z,0
2016-03-13T18:59:24.764Z,0
2016-03-13T19:00:24.908Z,0
2016-03-13T19:01:24.675Z,0
2016-03-13T19:02:24.819Z,0
2016-03-13T19:03:31.416Z,0
2016-03-13T19:04:24.871Z,0
2016-03-13T19:05:25.156Z,0
2016-03-13T19:06:24.939Z,0
2016-03-13T19:07:24.879Z,0
2016-03-13T19:08:38.227Z,0
2016-03-13T19:09:25.041Z,0
2016-03-13T19:10:24.982Z,0
2016-03-13T19:11:24.999Z,0
2016-03-13T19:12:24.924Z,0
2016-03-13T19:13:25.115Z,0
2016-03-13T19:14:25.243Z,0
2016-03-13T19:15:25.042Z,0
2016-03-13T19:16:25.075Z,0
2016-03-13T19:17:25.140Z,0
2016-03-13T19:18:25.143Z,0
2016-03-13T19:19:25.193Z,0
2016-03-13T19:20:25.836Z,0
2016-03-13T19:21:25.183Z,0
2016-03-13T19:22:25.342Z,0
2016-03-13T19:23:31.609Z,0
2016-03-13T19:24:25.425Z,0
2016-03-13T19:25:44.240Z,0
2016-03-13T19:26:25.336Z,0